createdAt,value
2017-02-27T04:29:39.447Z,0
2017-02-27T04:30:28.290Z,0
2017-02-27T04:31:16.874Z,0
2017-02-27T04:32:05.500Z,0
2017-02-27T04:32:53.909Z,0
2017-02-27T04:33:42.971Z,0
2017-02-27T04:34:31.860Z,0
2017-02-27T04:35:20.684Z,0
2017-02-27T04:36:09.441Z,0
2017-02-27T04:36:57.758Z,0
2017-02-27T04:37:46.844Z,0
2017-02-27T04:38:35.658Z,0
2017-02-27T04:39:24.402Z,0
2017-02-27T04:40:13.151Z,0
2017-02-27T04:41:02.057Z,0
2017-02-27T04:41:50.511Z,0
2017-02-27T04:42:39.033Z,0
2017-02-27T04:43:28.008Z,0
2017-02-27T04:44:16.598Z,0
2017-02-27T04:45:05.873Z,0
2017-02-27T04:45:54.512Z,0
2017-02-27T04:46:42.754Z,0
2017-02-27T04:47:31.593Z,0
2017-02-27T04:48:20.453Z,0
2017-02-27T04:49:09.331Z,0
2017-02-27T04:49:58.539Z,0
2017-02-27T04:50:46.743Z,0
2017-02-27T04:51:36.040Z,0
2017-02-27T04:52:25.498Z,0
2017-02-27T04:53:13.884Z,0
2017-02-27T04:54:03.037Z,0
2017-02-27T04:54:51.477Z,0
2017-02-27T04:55:40.490Z,0
2017-02-27T04:56:29.069Z,0
2017-02-27T04:57:17.857Z,0
2017-02-27T04:58:55.425Z,0
2017-02-27T04:59:44.129Z,0
2017-02-27T05:00:32.863Z,0
2017-02-27T05:01:21.490Z,0
2017-02-27T05:22:44.178Z,0
2017-02-27T05:23:33.338Z,0
2017-02-27T05:24:21.625Z,0
2017-02-27T05:25:10.471Z,0
2017-02-27T05:25:59.317Z,0
2017-02-27T05:26:47.669Z,0
2017-02-27T05:27:36.420Z,0
2017-02-27T05:28:25.250Z,0
2017-02-27T05:29:13.807Z,0
2017-02-27T05:30:02.727Z,0
2017-02-27T05:30:54.814Z,0
2017-02-27T05:31:41.063Z,0
2017-02-27T05:32:29.730Z,0
2017-02-27T05:33:17.976Z,0
2017-02-27T05:34:07.218Z,0
2017-02-27T05:42:44.335Z,0
2017-02-27T05:43:33.174Z,0
2017-02-27T05:44:22.805Z,0
2017-02-27T05:45:11.043Z,0
2017-02-27T05:46:00.466Z,0
2017-02-27T05:46:49.276Z,0
2017-02-27T05:47:37.603Z,0
2017-02-27T05:48:26.797Z,0
2017-02-27T05:49:15.529Z,0
2017-02-27T05:50:05.973Z,0
2017-02-27T05:50:54.527Z,0
2017-02-27T05:51:44.298Z,0
2017-02-27T05:52:32.942Z,0
2017-02-27T06:00:12.455Z,0
2017-02-27T06:01:00.857Z,0
2017-02-27T06:01:49.520Z,0
2017-02-27T06:02:38.219Z,0
2017-02-27T06:03:27.052Z,0
2017-02-27T06:04:15.639Z,0
2017-02-27T06:05:04.575Z,0
2017-02-27T06:07:27.593Z,0
2017-02-27T06:08:15.753Z,0
2017-02-27T06:09:04.425Z,0
2017-02-27T06:09:53.186Z,0
2017-02-27T06:10:41.909Z,0
2017-02-27T06:11:31.641Z,0
2017-02-27T06:12:19.782Z,5
2017-02-27T06:13:08.683Z,5
2017-02-27T06:13:57.470Z,5
2017-02-27T06:14:45.101Z,5
2017-02-27T06:15:33.641Z,5
2017-02-27T06:16:18.416Z,5
2017-02-27T06:16:58.709Z,5
2017-02-27T06:17:39.440Z,5
2017-02-27T06:18:19.883Z,5
2017-02-27T06:19:00.369Z,5
2017-02-27T06:19:40.973Z,5
2017-02-27T06:20:21.426Z,5
2017-02-27T06:21:02.108Z,10
2017-02-27T06:21:42.552Z,10
2017-02-27T06:22:23.096Z,10
2017-02-27T06:23:09.699Z,10
2017-02-27T06:23:50.072Z,10
2017-02-27T06:24:30.539Z,15
2017-02-27T06:25:11.035Z,15
2017-02-27T06:25:51.493Z,15
2017-02-27T06:26:32.125Z,15
2017-02-27T06:27:12.600Z,15
2017-02-27T06:27:53.077Z,15
2017-02-27T06:28:33.574Z,15
2017-02-27T06:29:14.074Z,15
2017-02-27T06:29:54.592Z,15
2017-02-27T06:30:35.060Z,15
2017-02-27T06:31:15.599Z,20
2017-02-27T06:31:56.056Z,20
2017-02-27T06:32:36.580Z,20
2017-02-27T06:33:17.048Z,20
2017-02-27T06:33:57.572Z,20
2017-02-27T06:34:38.063Z,25
2017-02-27T06:35:18.602Z,25
2017-02-27T06:35:59.053Z,25
2017-02-27T06:36:39.526Z,25
2017-02-27T06:37:20.026Z,25
2017-02-27T06:38:00.506Z,25
2017-02-27T06:38:40.995Z,25
2017-02-27T06:39:21.477Z,25
2017-02-27T06:40:02.021Z,25
2017-02-27T06:40:42.493Z,25
2017-02-27T06:41:23.007Z,30
2017-02-27T06:42:03.465Z,30
2017-02-27T06:42:44.012Z,30
2017-02-27T06:43:24.527Z,35
2017-02-27T06:44:05.034Z,35
2017-02-27T06:44:45.543Z,35
2017-02-27T06:45:26.023Z,35
2017-02-27T06:46:06.559Z,35
2017-02-27T06:46:47.045Z,35
2017-02-27T06:47:27.571Z,40
2017-02-27T06:48:08.037Z,40
2017-02-27T06:48:48.778Z,45
2017-02-27T06:49:29.307Z,45
2017-02-27T06:50:09.781Z,45
2017-02-27T06:50:50.307Z,50
2017-02-27T06:51:30.812Z,50
2017-02-27T06:52:11.310Z,50
2017-02-27T06:52:51.819Z,50
2017-02-27T06:53:32.370Z,55
2017-02-27T06:54:12.882Z,60
2017-02-27T06:54:53.323Z,60
2017-02-27T06:55:33.970Z,55
2017-02-27T06:56:14.457Z,55
2017-02-27T06:56:54.872Z,55
2017-02-27T06:57:35.398Z,55
2017-02-27T06:58:15.944Z,55
2017-02-27T06:58:56.572Z,55
2017-02-27T06:59:37.089Z,55
2017-02-27T07:00:17.556Z,55
2017-02-27T07:00:58.092Z,55
2017-02-27T07:01:38.723Z,55
2017-02-27T07:02:19.140Z,55
2017-02-27T07:02:59.607Z,60
2017-02-27T07:03:40.161Z,65
2017-02-27T07:04:20.607Z,65
2017-02-27T07:05:01.069Z,70
2017-02-27T07:05:41.587Z,65
2017-02-27T07:06:22.078Z,65
2017-02-27T07:07:02.595Z,70
2017-02-27T07:07:43.106Z,75
2017-02-27T07:08:23.627Z,85
2017-02-27T07:09:04.170Z,90
2017-02-27T07:09:44.614Z,95
2017-02-27T07:10:25.155Z,95
2017-02-27T07:11:05.626Z,95
2017-02-27T07:11:46.135Z,95
2017-02-27T07:12:26.639Z,95
2017-02-27T07:13:07.189Z,110
2017-02-27T07:13:47.736Z,105
2017-02-27T07:14:28.205Z,105
2017-02-27T07:15:08.685Z,105
2017-02-27T07:15:49.355Z,105
2017-02-27T07:16:29.835Z,95
2017-02-27T07:17:10.332Z,110
2017-02-27T07:17:50.825Z,105
2017-02-27T07:18:31.316Z,110
2017-02-27T07:19:11.828Z,100
2017-02-27T07:19:52.365Z,110
2017-02-27T07:20:33.584Z,110
2017-02-27T07:21:14.044Z,105
2017-02-27T07:21:54.787Z,105
2017-02-27T07:22:35.303Z,105
2017-02-27T07:23:15.861Z,105
2017-02-27T07:23:56.358Z,105
2017-02-27T07:24:36.897Z,105
2017-02-27T07:25:17.373Z,105
2017-02-27T07:25:57.884Z,105
2017-02-27T07:26:38.388Z,105
2017-02-27T07:27:18.879Z,105
2017-02-27T07:27:59.343Z,105
2017-02-27T07:28:39.870Z,110
2017-02-27T07:29:20.379Z,115
2017-02-27T07:30:00.991Z,110
2017-02-27T07:30:41.742Z,110
2017-02-27T07:31:22.346Z,115
2017-02-27T07:32:02.797Z,130
2017-02-27T07:32:43.255Z,130
2017-02-27T07:33:23.796Z,140
2017-02-27T07:34:04.388Z,135
2017-02-27T07:34:45.084Z,130
2017-02-27T07:35:25.593Z,125
2017-02-27T07:36:06.208Z,125
2017-02-27T07:36:46.621Z,120
2017-02-27T07:37:27.133Z,115
2017-02-27T07:38:07.949Z,120
2017-02-27T07:38:48.433Z,130
2017-02-27T07:39:29.090Z,145
2017-02-27T07:40:09.415Z,160
2017-02-27T07:40:50.413Z,170
2017-02-27T07:41:30.917Z,170
2017-02-27T07:42:11.399Z,180
2017-02-27T07:42:51.962Z,180
2017-02-27T07:43:32.388Z,175
2017-02-27T07:44:12.871Z,175
2017-02-27T07:44:53.617Z,170
2017-02-27T07:45:34.327Z,155
2017-02-27T07:46:14.825Z,140
2017-02-27T07:46:55.273Z,130
2017-02-27T07:47:35.782Z,120
2017-02-27T07:48:16.307Z,120
2017-02-27T07:48:56.773Z,115
2017-02-27T07:49:37.278Z,115
2017-02-27T07:50:18.079Z,115
2017-02-27T07:50:58.516Z,110
2017-02-27T07:51:39.022Z,110
2017-02-27T07:52:19.518Z,115
2017-02-27T07:53:00.007Z,115
2017-02-27T07:53:40.513Z,115
2017-02-27T07:54:21.137Z,115
2017-02-27T07:55:01.562Z,120
2017-02-27T07:55:42.030Z,115
2017-02-27T07:56:22.552Z,120
2017-02-27T07:57:03.098Z,115
2017-02-27T07:57:43.674Z,120
2017-02-27T07:58:24.227Z,115
2017-02-27T07:59:04.700Z,120
2017-02-27T07:59:45.237Z,120
2017-02-27T08:00:25.722Z,125
2017-02-27T08:01:06.219Z,125
2017-02-27T08:01:46.706Z,125
2017-02-27T08:02:27.284Z,125
2017-02-27T08:03:07.755Z,125
2017-02-27T08:03:48.646Z,125
2017-02-27T08:04:29.259Z,120
2017-02-27T08:05:09.821Z,125
2017-02-27T08:05:50.228Z,125
2017-02-27T08:06:30.804Z,125
2017-02-27T08:07:14.758Z,125
2017-02-27T08:07:55.297Z,130
2017-02-27T08:08:35.841Z,135
2017-02-27T08:09:16.318Z,135
2017-02-27T08:09:56.808Z,145
2017-02-27T08:10:37.308Z,145
2017-02-27T08:11:17.761Z,145
2017-02-27T08:11:59.359Z,150
2017-02-27T08:12:39.065Z,145
2017-02-27T08:13:19.556Z,150
2017-02-27T08:14:00.049Z,140
2017-02-27T08:14:40.723Z,130
2017-02-27T08:15:21.134Z,130
2017-02-27T08:16:01.657Z,135
2017-02-27T08:16:42.249Z,135
2017-02-27T08:17:22.905Z,130
2017-02-27T08:18:03.428Z,130
2017-02-27T08:18:44.287Z,130
2017-02-27T08:19:24.466Z,125
2017-02-27T08:20:05.010Z,125
2017-02-27T08:20:45.552Z,125
2017-02-27T08:21:32.937Z,125
2017-02-27T08:22:15.782Z,125
2017-02-27T08:22:56.335Z,125
2017-02-27T08:23:36.828Z,125
2017-02-27T08:24:17.429Z,125
2017-02-27T08:24:57.914Z,130
2017-02-27T08:25:38.414Z,130
2017-02-27T08:26:18.882Z,130
2017-02-27T08:26:59.424Z,130
2017-02-27T08:27:39.875Z,130
2017-02-27T08:31:34.822Z,130
2017-02-27T08:32:23.739Z,130
2017-02-27T08:33:12.396Z,130
2017-02-27T08:34:01.102Z,125
2017-02-27T08:34:50.055Z,125
2017-02-27T08:35:39.033Z,125
2017-02-27T08:36:28.238Z,125
2017-02-27T08:37:17.211Z,125
2017-02-27T08:38:05.223Z,130
2017-02-27T08:38:54.540Z,125
2017-02-27T08:39:42.761Z,125
2017-02-27T08:40:31.463Z,125
2017-02-27T08:41:20.075Z,125
2017-02-27T08:42:08.731Z,125
2017-02-27T08:42:59.022Z,125
2017-02-27T08:57:33.634Z,120
2017-02-27T09:05:59.261Z,125
2017-02-27T09:10:19.472Z,125
2017-02-27T09:11:11.231Z,125
2017-02-27T09:16:02.764Z,125
2017-02-27T09:17:38.607Z,125
2017-02-27T09:23:13.976Z,125
2017-02-27T09:28:00.615Z,125
2017-02-27T09:28:48.177Z,130
2017-02-27T09:29:32.059Z,130
2017-02-27T09:30:12.523Z,125
2017-02-27T09:30:53.006Z,130
2017-02-27T09:31:33.601Z,130
2017-02-27T09:32:14.077Z,125
2017-02-27T09:32:54.797Z,130
2017-02-27T09:33:35.415Z,125
2017-02-27T09:34:15.862Z,130
2017-02-27T09:34:56.443Z,130
2017-02-27T09:35:37.068Z,130
2017-02-27T09:36:17.457Z,125
2017-02-27T09:36:58.001Z,125
2017-02-27T09:37:38.506Z,125
2017-02-27T09:38:19.058Z,125
2017-02-27T09:38:59.522Z,125
2017-02-27T09:39:40.129Z,125
2017-02-27T09:40:20.828Z,125
2017-02-27T09:41:01.379Z,125
2017-02-27T09:41:42.008Z,125
2017-02-27T09:42:22.475Z,125
2017-02-27T09:43:03.014Z,125
2017-02-27T09:43:43.513Z,125
2017-02-27T09:44:24.074Z,125
2017-02-27T09:45:04.526Z,125
2017-02-27T09:45:45.082Z,125
2017-02-27T09:46:26.526Z,125
2017-02-27T09:47:07.179Z,125
2017-02-27T09:47:47.813Z,125
2017-02-27T09:48:28.321Z,130
2017-02-27T09:49:11.281Z,125
2017-02-27T09:49:52.415Z,125
2017-02-27T09:50:33.618Z,125
2017-02-27T09:51:14.200Z,125
2017-02-27T09:51:54.835Z,125
2017-02-27T09:52:35.260Z,125
2017-02-27T09:55:15.695Z,125
2017-02-27T09:55:56.270Z,125
2017-02-27T09:56:36.820Z,125
2017-02-27T09:57:17.460Z,125
2017-02-27T09:57:57.945Z,125
2017-02-27T09:58:38.459Z,125
2017-02-27T09:59:18.945Z,125
2017-02-27T09:59:59.554Z,125
2017-02-27T10:00:40.054Z,130
2017-02-27T10:01:20.558Z,130
2017-02-27T10:02:01.112Z,130
2017-02-27T10:02:42.206Z,130
2017-02-27T10:03:22.836Z,130
2017-02-27T10:04:03.285Z,130
2017-02-27T10:04:43.896Z,130
2017-02-27T10:05:24.382Z,130
2017-02-27T10:06:04.830Z,130
2017-02-27T10:06:45.424Z,130
2017-02-27T10:07:25.945Z,130
2017-02-27T10:08:06.413Z,125
2017-02-27T10:08:46.883Z,125
2017-02-27T10:09:27.602Z,125
2017-02-27T10:10:08.062Z,130
2017-02-27T10:10:48.787Z,130
2017-02-27T10:11:29.234Z,125
2017-02-27T10:12:09.857Z,130
2017-02-27T10:12:50.278Z,130
2017-02-27T10:13:31.054Z,130
2017-02-27T10:14:11.589Z,130
2017-02-27T10:14:54.105Z,125
2017-02-27T10:15:34.628Z,130
2017-02-27T10:16:15.091Z,125
2017-02-27T10:16:55.592Z,130
2017-02-27T10:17:36.161Z,125
2017-02-27T10:18:16.641Z,125
2017-02-27T10:18:57.083Z,125
2017-02-27T10:19:37.548Z,125
2017-02-27T10:20:18.125Z,125
2017-02-27T10:20:58.730Z,125
2017-02-27T10:21:39.408Z,125
2017-02-27T10:22:19.861Z,125
2017-02-27T10:23:00.273Z,125
2017-02-27T10:23:40.821Z,125
2017-02-27T10:24:21.264Z,125
2017-02-27T10:25:01.820Z,125
2017-02-27T10:25:42.346Z,125
2017-02-27T10:26:25.483Z,125
2017-02-27T10:27:06.086Z,125
2017-02-27T10:27:48.902Z,125
2017-02-27T10:28:29.386Z,125
2017-02-27T10:29:10.003Z,125
2017-02-27T10:29:50.513Z,130
2017-02-27T10:30:31.025Z,125
2017-02-27T10:31:11.555Z,125
2017-02-27T10:31:51.988Z,125
2017-02-27T10:32:32.414Z,125
2017-02-27T10:33:12.998Z,130
2017-02-27T10:33:53.512Z,125
2017-02-27T10:34:34.113Z,125
2017-02-27T10:35:14.520Z,125
2017-02-27T10:35:55.186Z,125
2017-02-27T10:36:35.701Z,125
2017-02-27T10:37:20.523Z,125
2017-02-27T10:38:07.282Z,125
2017-02-27T10:47:25.619Z,125
2017-02-27T11:14:07.264Z,115
2017-02-27T11:14:45.259Z,120
2017-02-27T11:15:26.348Z,125
2017-02-27T11:16:06.272Z,135
2017-02-27T11:16:46.797Z,145
2017-02-27T11:17:27.255Z,135
2017-02-27T11:18:07.813Z,130
2017-02-27T11:18:48.285Z,125
2017-02-27T11:19:28.967Z,140
2017-02-27T11:20:09.259Z,180
2017-02-27T11:20:49.992Z,180
2017-02-27T11:21:30.489Z,165
2017-02-27T11:22:11.069Z,160
2017-02-27T11:22:51.850Z,210
2017-02-27T11:23:32.898Z,250
2017-02-27T11:24:13.963Z,220
2017-02-27T11:24:54.426Z,180
2017-02-27T11:25:34.881Z,175
2017-02-27T11:26:15.379Z,180
2017-02-27T11:26:55.881Z,180
2017-02-27T11:27:36.432Z,180
2017-02-27T11:28:17.155Z,170
2017-02-27T11:28:57.674Z,185
2017-02-27T11:29:38.205Z,165
2017-02-27T11:30:18.906Z,160
2017-02-27T11:30:59.341Z,185
2017-02-27T11:31:39.800Z,230
2017-02-27T11:32:20.346Z,220
2017-02-27T11:33:00.797Z,185
2017-02-27T11:33:41.512Z,160
2017-02-27T11:34:22.002Z,145
2017-02-27T11:35:02.663Z,140
2017-02-27T11:35:43.095Z,135
2017-02-27T11:36:23.528Z,130
2017-02-27T11:37:04.008Z,125
2017-02-27T11:37:44.485Z,125
2017-02-27T11:38:25.005Z,120
2017-02-27T11:39:05.501Z,125
2017-02-27T11:39:46.051Z,150
2017-02-27T11:40:26.560Z,180
2017-02-27T11:41:07.074Z,170
2017-02-27T11:41:47.548Z,155
2017-02-27T11:42:28.013Z,140
2017-02-27T11:43:08.562Z,130
2017-02-27T11:43:49.087Z,125
2017-02-27T11:44:29.642Z,125
2017-02-27T11:45:10.151Z,125
2017-02-27T11:45:50.624Z,120
2017-02-27T11:46:31.218Z,130
2017-02-27T11:47:12.645Z,120
2017-02-27T11:47:53.182Z,125
2017-02-27T11:48:33.780Z,120
2017-02-27T11:49:14.290Z,125
2017-02-27T11:49:54.856Z,125
2017-02-27T11:50:35.382Z,125
2017-02-27T11:51:16.039Z,120
2017-02-27T11:51:56.400Z,120
2017-02-27T11:52:37.060Z,120
2017-02-27T11:53:17.655Z,120
2017-02-27T11:53:58.219Z,120
2017-02-27T11:54:38.743Z,120
2017-02-27T11:55:19.389Z,120
2017-02-27T11:56:00.377Z,120
2017-02-27T11:56:40.698Z,135
2017-02-27T11:57:21.204Z,130
2017-02-27T11:58:01.734Z,125
2017-02-27T11:58:56.596Z,120
2017-02-27T12:09:54.000Z,120
2017-02-27T12:16:05.633Z,120
2017-02-27T12:18:57.023Z,120
2017-02-27T12:22:24.380Z,120
2017-02-27T12:23:16.252Z,120
2017-02-27T12:24:06.882Z,120
2017-02-27T12:27:31.947Z,115
2017-02-27T12:39:11.465Z,125
2017-02-27T12:47:53.612Z,125
2017-02-27T12:50:21.631Z,125
2017-02-27T12:53:09.800Z,125
2017-02-27T12:53:55.083Z,125
2017-02-27T12:54:35.640Z,125
2017-02-27T12:55:16.147Z,120
2017-02-27T12:55:56.665Z,120
2017-02-27T12:56:37.173Z,120
2017-02-27T12:57:17.667Z,120
2017-02-27T12:57:58.162Z,120
2017-02-27T12:58:38.628Z,120
2017-02-27T12:59:19.135Z,120
2017-02-27T13:00:00.077Z,115
2017-02-27T13:00:40.621Z,115
2017-02-27T13:01:21.211Z,115
2017-02-27T13:02:01.645Z,115
2017-02-27T13:02:42.200Z,115
2017-02-27T13:03:22.602Z,115
2017-02-27T13:04:03.230Z,115
2017-02-27T13:04:43.733Z,110
2017-02-27T13:05:24.240Z,115
2017-02-27T13:06:04.761Z,110
2017-02-27T13:06:45.253Z,110
2017-02-27T13:07:25.750Z,110
2017-02-27T13:08:06.274Z,110
2017-02-27T13:08:46.801Z,110
2017-02-27T13:09:27.246Z,110
2017-02-27T13:10:07.799Z,110
2017-02-27T13:10:48.267Z,110
2017-02-27T13:11:28.742Z,110
2017-02-27T13:12:09.272Z,105
2017-02-27T13:12:49.748Z,110
2017-02-27T13:13:30.253Z,105
2017-02-27T13:14:10.714Z,105
2017-02-27T13:14:51.362Z,110
2017-02-27T13:15:31.807Z,110
2017-02-27T13:16:12.315Z,110
2017-02-27T13:16:52.824Z,110
2017-02-27T13:17:33.325Z,115
2017-02-27T13:18:13.916Z,115
2017-02-27T13:18:54.454Z,115
2017-02-27T13:19:34.930Z,115
2017-02-27T13:20:15.665Z,115
2017-02-27T13:20:56.132Z,120
2017-02-27T13:21:36.635Z,120
2017-02-27T13:22:17.071Z,120
2017-02-27T13:22:57.597Z,120
2017-02-27T13:23:38.093Z,120
2017-02-27T13:24:18.606Z,120
2017-02-27T13:24:59.061Z,120
2017-02-27T13:25:40.263Z,120
2017-02-27T13:26:20.880Z,120
2017-02-27T13:27:01.360Z,120
2017-02-27T13:27:41.868Z,125
2017-02-27T13:28:22.417Z,125
2017-02-27T13:29:02.923Z,125
2017-02-27T13:29:43.435Z,130
2017-02-27T13:30:24.201Z,125
2017-02-27T13:31:04.815Z,125
2017-02-27T13:31:45.406Z,125
2017-02-27T13:32:28.501Z,125
2017-02-27T13:33:16.236Z,125
2017-02-27T13:37:25.443Z,120
2017-02-27T14:14:08.513Z,120
2017-02-27T14:15:56.840Z,115
2017-02-27T14:22:31.403Z,105
2017-02-27T14:26:15.271Z,105
2017-02-27T14:26:56.891Z,105
2017-02-27T14:27:37.141Z,105
2017-02-27T14:28:17.659Z,105
2017-02-27T14:28:58.187Z,105
2017-02-27T14:29:39.628Z,105
2017-02-27T14:30:20.043Z,105
2017-02-27T14:31:00.522Z,105
2017-02-27T14:31:41.042Z,105
2017-02-27T14:32:22.766Z,105
2017-02-27T14:33:03.364Z,105
2017-02-27T15:35:20.740Z,80
2017-02-27T15:36:06.107Z,80
2017-02-27T15:36:56.406Z,80
2017-02-27T15:37:44.932Z,80
2017-02-27T15:38:33.364Z,80
2017-02-27T15:39:22.077Z,75
2017-02-27T15:40:12.678Z,75
2017-02-27T15:41:02.391Z,75
2017-02-27T15:41:52.296Z,75
2017-02-27T15:42:40.560Z,80
2017-02-27T15:43:29.242Z,75
2017-02-27T15:44:14.669Z,70
2017-02-27T15:45:04.489Z,80
2017-02-27T15:45:56.383Z,80
2017-02-27T15:46:55.677Z,85
2017-02-27T15:54:03.281Z,45
2017-02-27T15:54:45.112Z,45
2017-02-27T15:55:26.641Z,45
2017-02-27T15:56:06.479Z,45
2017-02-27T15:56:47.179Z,40
2017-02-27T15:57:27.967Z,40
2017-02-27T15:58:09.263Z,45
2017-02-27T15:58:49.693Z,40
2017-02-27T15:59:30.688Z,30
2017-02-27T16:00:12.041Z,30
2017-02-27T16:01:39.261Z,25
2017-02-27T16:02:23.558Z,25
2017-02-27T16:03:04.431Z,25
2017-02-27T16:03:44.907Z,20
2017-02-27T16:04:25.763Z,20
2017-02-27T16:05:07.067Z,20
2017-02-27T16:05:47.513Z,15
2017-02-27T16:06:28.164Z,20
2017-02-27T16:07:08.655Z,20
2017-02-27T16:07:49.377Z,20
2017-02-27T16:08:29.755Z,20
2017-02-27T16:09:10.286Z,25
2017-02-27T16:09:50.828Z,30
2017-02-27T16:10:31.369Z,35
2017-02-27T16:11:11.875Z,40
2017-02-27T16:11:52.609Z,40
2017-02-27T16:12:33.022Z,45
2017-02-27T16:13:13.512Z,45
2017-02-27T16:13:54.075Z,45
2017-02-27T16:14:34.737Z,45
2017-02-27T16:15:15.168Z,45
2017-02-27T16:15:55.664Z,45
2017-02-27T16:16:36.123Z,45
2017-02-27T16:17:16.833Z,45
2017-02-27T16:17:57.127Z,45
2017-02-27T16:18:37.806Z,45
2017-02-27T16:19:18.273Z,45
2017-02-27T16:19:59.046Z,45
2017-02-27T16:20:39.527Z,45
2017-02-27T16:21:20.016Z,40
2017-02-27T16:22:00.480Z,40
2017-02-27T16:22:41.129Z,40
2017-02-27T16:23:21.602Z,40
2017-02-27T16:24:02.143Z,40
2017-02-27T16:24:42.685Z,40
2017-02-27T16:25:23.192Z,40
2017-02-27T16:26:03.602Z,40
2017-02-27T16:26:44.388Z,35
2017-02-27T16:27:24.905Z,35
2017-02-27T16:28:05.346Z,35
2017-02-27T16:28:45.896Z,30
2017-02-27T16:29:26.570Z,30
2017-02-27T16:30:07.080Z,25
2017-02-27T16:30:47.536Z,25
2017-02-27T16:31:28.045Z,25
2017-02-27T16:32:08.574Z,25
2017-02-27T16:32:49.050Z,25
2017-02-27T16:33:29.511Z,25
2017-02-27T16:34:10.023Z,25
2017-02-27T16:34:50.517Z,25
2017-02-27T16:35:31.044Z,25
2017-02-27T16:36:11.548Z,25
2017-02-27T16:36:52.041Z,25
2017-02-27T16:37:33.449Z,25
2017-02-27T16:38:14.997Z,25
2017-02-27T16:38:55.563Z,25
2017-02-27T16:39:36.139Z,25
2017-02-27T16:40:16.636Z,20
2017-02-27T16:40:57.167Z,20
2017-02-27T16:41:37.609Z,20
2017-02-27T16:42:18.106Z,20
2017-02-27T16:42:59.260Z,20
2017-02-27T16:43:39.988Z,20
2017-02-27T16:44:20.483Z,20
2017-02-27T16:45:00.992Z,20
2017-02-27T16:45:41.468Z,20
2017-02-27T16:46:22.011Z,20
2017-02-27T16:48:35.286Z,15
2017-02-27T16:49:15.822Z,15
2017-02-27T16:49:56.590Z,15
2017-02-27T16:50:37.105Z,15
2017-02-27T16:51:17.617Z,15
2017-02-27T16:51:58.127Z,10
2017-02-27T16:52:38.615Z,10
2017-02-27T16:53:19.110Z,10
2017-02-27T16:53:59.591Z,10
2017-02-27T16:54:40.121Z,10
2017-02-27T16:55:20.619Z,10
2017-02-27T16:56:01.116Z,10
2017-02-27T16:56:41.641Z,10
2017-02-27T16:57:22.211Z,10
2017-02-27T16:58:02.719Z,10
2017-02-27T16:58:43.202Z,10
2017-02-27T16:59:23.655Z,5
2017-02-27T17:00:04.136Z,5
2017-02-27T17:00:44.616Z,5
2017-02-27T17:01:25.167Z,5
2017-02-27T17:02:05.605Z,5
2017-02-27T17:02:46.184Z,5
2017-02-27T17:03:26.707Z,5
2017-02-27T17:04:07.262Z,5
2017-02-27T17:04:47.775Z,5
2017-02-27T17:05:28.580Z,5
2017-02-27T17:06:09.092Z,5
2017-02-27T17:06:49.617Z,5
2017-02-27T17:07:30.151Z,0
2017-02-27T17:08:10.736Z,0
2017-02-27T17:08:51.270Z,0
2017-02-27T17:09:31.757Z,0
2017-02-27T17:10:12.328Z,0
2017-02-27T17:10:52.820Z,0
2017-02-27T17:11:33.329Z,0
2017-02-27T17:12:13.822Z,0
2017-02-27T17:12:54.326Z,0
2017-02-27T17:13:34.814Z,0
2017-02-27T17:14:15.408Z,0
2017-02-27T17:14:55.864Z,0
2017-02-27T17:15:36.324Z,0
2017-02-27T17:16:16.810Z,0
2017-02-27T17:16:57.342Z,0
2017-02-27T17:17:37.971Z,0
2017-02-27T17:18:18.491Z,0
2017-02-27T17:18:59.003Z,0
2017-02-27T17:19:39.451Z,0
2017-02-27T17:20:20.019Z,0
2017-02-27T17:21:00.485Z,0
2017-02-27T17:21:41.038Z,0
2017-02-27T17:22:21.535Z,0
2017-02-27T17:23:02.077Z,0
2017-02-27T17:23:42.554Z,0
2017-02-27T17:24:23.064Z,0
2017-02-27T17:25:03.562Z,0
2017-02-27T17:25:44.085Z,0
2017-02-27T17:26:24.586Z,0
2017-02-27T17:27:05.257Z,0
2017-02-27T17:27:45.600Z,0
2017-02-27T17:28:26.093Z,0
2017-02-27T17:29:06.596Z,0
2017-02-27T17:29:47.095Z,0
2017-02-27T17:30:27.592Z,0
2017-02-27T17:31:08.093Z,0
2017-02-27T17:31:48.603Z,0
2017-02-27T17:32:29.083Z,0
2017-02-27T17:33:09.549Z,0
2017-02-27T17:33:50.101Z,0
2017-02-27T17:34:30.739Z,0
2017-02-27T17:35:11.208Z,0
2017-02-27T17:35:51.805Z,0
2017-02-27T17:36:32.299Z,0
2017-02-27T17:37:12.786Z,0
2017-02-27T17:37:53.297Z,0
2017-02-27T17:38:33.806Z,0
2017-02-27T17:39:14.360Z,0
2017-02-27T17:39:54.929Z,0
2017-02-27T17:40:35.520Z,0
2017-02-27T17:41:16.025Z,0
2017-02-27T17:41:56.895Z,0
2017-02-27T17:42:37.331Z,0
2017-02-27T17:43:17.869Z,0
2017-02-27T17:43:58.364Z,0
2017-02-27T17:44:38.882Z,0
2017-02-27T17:45:19.408Z,0
2017-02-27T17:45:59.925Z,0
2017-02-27T17:46:40.430Z,0
2017-02-27T17:47:20.978Z,0
2017-02-27T17:48:01.473Z,0
2017-02-27T17:48:41.994Z,0
2017-02-27T17:49:22.511Z,0
2017-02-27T17:50:02.997Z,0
2017-02-27T17:50:43.530Z,0
2017-02-27T17:51:24.008Z,0
2017-02-27T17:52:04.485Z,0
2017-02-27T17:52:44.968Z,0
2017-02-27T17:53:25.490Z,0
2017-02-27T17:54:05.960Z,0
2017-02-27T17:54:46.469Z,0
2017-02-27T17:55:27.125Z,0
2017-02-27T17:56:07.474Z,0
2017-02-27T17:56:48.002Z,0
2017-02-27T17:57:28.494Z,0
2017-02-27T17:58:09.067Z,0
2017-02-27T17:58:49.494Z,0
2017-02-27T17:59:30.054Z,0
2017-02-27T18:00:10.503Z,0
2017-02-27T18:00:51.021Z,0
2017-02-27T18:01:31.554Z,0
2017-02-27T18:02:12.066Z,0
2017-02-27T18:02:52.865Z,0
2017-02-27T18:03:33.315Z,0
2017-02-27T18:04:13.819Z,0
2017-02-27T18:04:54.319Z,0
2017-02-27T18:05:34.842Z,0
2017-02-27T18:06:15.261Z,0
2017-02-27T18:06:55.792Z,0
2017-02-27T18:07:36.315Z,0
2017-02-27T18:08:16.826Z,0
2017-02-27T18:08:57.284Z,0
2017-02-27T18:09:37.810Z,0
2017-02-27T18:10:18.344Z,0
2017-02-27T18:10:58.860Z,0
2017-02-27T18:11:39.370Z,0
2017-02-27T18:12:19.925Z,0
2017-02-27T18:13:00.807Z,0
2017-02-27T18:13:41.117Z,0
2017-02-27T18:14:21.631Z,0
2017-02-27T18:15:02.201Z,0
2017-02-27T18:15:43.347Z,0
2017-02-27T18:16:23.990Z,0
2017-02-27T18:17:04.619Z,0
2017-02-27T18:17:45.094Z,0
2017-02-27T18:18:25.653Z,0
2017-02-27T18:19:06.183Z,0
2017-02-27T18:19:46.635Z,0
2017-02-27T18:20:27.222Z,0
2017-02-27T18:21:07.711Z,0
2017-02-27T18:21:51.002Z,0
2017-02-27T18:22:31.562Z,0
2017-02-27T18:23:12.075Z,0
2017-02-27T18:23:52.568Z,0
2017-02-27T18:24:33.088Z,0
2017-02-27T18:25:13.666Z,0
2017-02-27T18:25:54.055Z,0
2017-02-27T18:26:34.564Z,0
2017-02-27T18:27:15.136Z,0
2017-02-27T18:27:55.663Z,0
2017-02-27T18:28:36.137Z,0
2017-02-27T18:29:16.592Z,0
2017-02-27T18:29:57.204Z,0
2017-02-27T18:30:37.649Z,0
2017-02-27T18:31:18.140Z,0
2017-02-27T18:31:58.621Z,0
2017-02-27T18:32:39.152Z,0
2017-02-27T18:33:19.692Z,0
2017-02-27T18:34:00.264Z,0
2017-02-27T18:34:40.770Z,0
2017-02-27T18:35:21.306Z,0
2017-02-27T18:36:01.720Z,0
2017-02-27T18:36:42.245Z,0
2017-02-27T18:37:22.791Z,0
2017-02-27T18:38:03.361Z,0
2017-02-27T18:38:43.849Z,0
2017-02-27T18:39:24.430Z,0
2017-02-27T18:40:04.889Z,0
2017-02-27T18:40:45.437Z,0
2017-02-27T18:41:26.019Z,0
2017-02-27T18:42:06.515Z,0
2017-02-27T18:42:47.103Z,0
2017-02-27T18:43:27.580Z,0
2017-02-27T18:44:08.091Z,0
2017-02-27T18:44:48.543Z,0
2017-02-27T18:45:29.057Z,0
2017-02-27T18:46:09.533Z,0
2017-02-27T18:46:50.063Z,0
2017-02-27T18:47:30.543Z,0
2017-02-27T18:48:11.184Z,0
2017-02-27T18:48:51.599Z,0
2017-02-27T18:49:32.093Z,0
2017-02-27T18:50:12.612Z,0
2017-02-27T18:50:53.118Z,0
2017-02-27T18:51:33.612Z,0
2017-02-27T18:52:14.091Z,0
2017-02-27T18:52:54.674Z,0
2017-02-27T18:53:36.014Z,0
2017-02-27T18:54:16.532Z,0
2017-02-27T18:54:57.032Z,0
2017-02-27T18:55:38.474Z,0
2017-02-27T18:56:18.964Z,0
2017-02-27T18:56:59.686Z,0
2017-02-27T18:57:40.147Z,0
2017-02-27T18:58:20.680Z,0
2017-02-27T18:59:01.210Z,0
2017-02-27T18:59:41.643Z,0
2017-02-27T19:00:22.148Z,0
2017-02-27T19:01:02.640Z,0
2017-02-27T19:01:43.207Z,0
2017-02-27T19:02:23.875Z,0
2017-02-27T19:03:04.378Z,0
2017-02-27T19:03:44.891Z,0
2017-02-27T19:04:25.412Z,0
2017-02-27T19:05:05.989Z,0
2017-02-27T19:05:46.493Z,0